sensor_id;sensor_type;location;lat;lon;timestamp;temperature;humidity
10873;DHT22;34586;53.616;10.032;2023-07-24T00:01:11;18.00;99.90
10873;DHT22;34586;53.616;10.032;2023-07-24T00:03:37;17.90;99.90
10873;DHT22;34586;53.616;10.032;2023-07-24T00:06:03;18.00;99.90
10873;DHT22;34586;53.616;10.032;2023-07-24T00:08:28;18.00;99.90
10873;DHT22;34586;53.616;10.032;2023-07-24T00:10:54;17.90;99.90
10873;DHT22;34586;53.616;10.032;2023-07-24T00:13:19;18.00;99.90
10873;DHT22;34586;53.616;10.032;2023-07-24T00:15:45;18.00;99.90
10873;DHT22;34586;53.616;10.032;2023-07-24T00:18:11;18.00;99.90
10873;DHT22;34586;53.616;10.032;2023-07-24T00:20:36;18.00;99.90
10873;DHT22;34586;53.616;10.032;2023-07-24T00:23:02;18.10;99.90
10873;DHT22;34586;53.616;10.032;2023-07-24T00:25:27;18.00;99.90
10873;DHT22;34586;53.616;10.032;2023-07-24T00:27:53;18.00;99.90
10873;DHT22;34586;53.616;10.032;2023-07-24T00:30:19;18.10;99.90
10873;DHT22;34586;53.616;10.032;2023-07-24T00:32:44;18.00;99.90
10873;DHT22;34586;53.616;10.032;2023-07-24T00:35:10;18.00;99.90
10873;DHT22;34586;53.616;10.032;2023-07-24T00:37:35;18.00;99.90
10873;DHT22;34586;53.616;10.032;2023-07-24T00:40:02;18.00;99.90
10873;DHT22;34586;53.616;10.032;2023-07-24T00:42:28;18.00;99.90
10873;DHT22;34586;53.616;10.032;2023-07-24T00:44:53;17.90;99.90
10873;DHT22;34586;53.616;10.032;2023-07-24T00:47:19;17.90;99.90
10873;DHT22;34586;53.616;10.032;2023-07-24T00:49:45;17.80;99.90
10873;DHT22;34586;53.616;10.032;2023-07-24T00:52:11;17.80;99.90
10873;DHT22;34586;53.616;10.032;2023-07-24T00:54:38;17.70;99.90
10873;DHT22;34586;53.616;10.032;2023-07-24T00:57:04;17.80;99.90
10873;DHT22;34586;53.616;10.032;2023-07-24T00:59:31;17.80;99.90
10873;DHT22;34586;53.616;10.032;2023-07-24T01:01:57;17.80;99.90
10873;DHT22;34586;53.616;10.032;2023-07-24T01:04:23;17.80;99.90
10873;DHT22;34586;53.616;10.032;2023-07-24T01:06:49;17.80;99.90
10873;DHT22;34586;53.616;10.032;2023-07-24T01:09:14;17.80;99.90
10873;DHT22;34586;53.616;10.032;2023-07-24T01:11:46;17.80;99.90
10873;DHT22;34586;53.616;10.032;2023-07-24T01:14:31;17.80;99.90
10873;DHT22;34586;53.616;10.032;2023-07-24T01:16:58;17.80;99.90
10873;DHT22;34586;53.616;10.032;2023-07-24T01:19:33;17.80;99.90
10873;DHT22;34586;53.616;10.032;2023-07-24T01:27:50;18.00;99.90
10873;DHT22;34586;53.616;10.032;2023-07-24T01:30:19;18.00;99.90
10873;DHT22;34586;53.616;10.032;2023-07-24T01:32:45;18.00;99.90
10873;DHT22;34586;53.616;10.032;2023-07-24T01:35:11;18.00;99.90
10873;DHT22;34586;53.616;10.032;2023-07-24T01:37:37;18.00;99.90
10873;DHT22;34586;53.616;10.032;2023-07-24T01:40:06;18.00;99.90
10873;DHT22;34586;53.616;10.032;2023-07-24T01:42:34;18.00;99.90
10873;DHT22;34586;53.616;10.032;2023-07-24T01:45:02;17.60;99.90
10873;DHT22;34586;53.616;10.032;2023-07-24T01:47:29;17.90;99.90
10873;DHT22;34586;53.616;10.032;2023-07-24T01:49:55;17.90;99.90
10873;DHT22;34586;53.616;10.032;2023-07-24T01:52:21;17.90;99.90
10873;DHT22;34586;53.616;10.032;2023-07-24T01:54:47;17.90;99.90
10873;DHT22;34586;53.616;10.032;2023-07-24T01:57:12;17.90;99.90
10873;DHT22;34586;53.616;10.032;2023-07-24T01:59:38;17.90;99.90
10873;DHT22;34586;53.616;10.032;2023-07-24T02:02:04;17.90;99.90
10873;DHT22;34586;53.616;10.032;2023-07-24T02:04:29;17.90;99.90
10873;DHT22;34586;53.616;10.032;2023-07-24T02:06:55;17.80;99.90
10873;DHT22;34586;53.616;10.032;2023-07-24T02:09:20;17.90;99.90
10873;DHT22;34586;53.616;10.032;2023-07-24T02:11:46;17.90;99.90
10873;DHT22;34586;53.616;10.032;2023-07-24T02:14:13;17.90;99.90
10873;DHT22;34586;53.616;10.032;2023-07-24T02:16:38;17.80;99.90
10873;DHT22;34586;53.616;10.032;2023-07-24T02:19:05;17.90;99.90
10873;DHT22;34586;53.616;10.032;2023-07-24T02:21:31;17.80;99.90
10873;DHT22;34586;53.616;10.032;2023-07-24T02:23:56;17.90;99.90
10873;DHT22;34586;53.616;10.032;2023-07-24T02:26:22;17.80;99.90
10873;DHT22;34586;53.616;10.032;2023-07-24T02:28:47;17.90;99.90
10873;DHT22;34586;53.616;10.032;2023-07-24T02:31:13;17.80;99.90
10873;DHT22;34586;53.616;10.032;2023-07-24T02:33:38;17.80;99.90
10873;DHT22;34586;53.616;10.032;2023-07-24T02:36:04;17.80;99.90
10873;DHT22;34586;53.616;10.032;2023-07-24T02:38:30;17.80;99.90
10873;DHT22;34586;53.616;10.032;2023-07-24T02:40:55;17.80;99.90
10873;DHT22;34586;53.616;10.032;2023-07-24T02:43:21;17.70;99.90
10873;DHT22;34586;53.616;10.032;2023-07-24T02:45:47;17.70;99.90
10873;DHT22;34586;53.616;10.032;2023-07-24T02:48:12;17.60;99.90
10873;DHT22;34586;53.616;10.032;2023-07-24T02:50:38;17.60;99.90
10873;DHT22;34586;53.616;10.032;2023-07-24T02:53:03;17.60;99.90
10873;DHT22;34586;53.616;10.032;2023-07-24T02:55:29;17.50;99.90
10873;DHT22;34586;53.616;10.032;2023-07-24T02:57:55;17.60;99.90
10873;DHT22;34586;53.616;10.032;2023-07-24T03:00:21;17.50;99.90
10873;DHT22;34586;53.616;10.032;2023-07-24T03:02:46;17.50;99.90
10873;DHT22;34586;53.616;10.032;2023-07-24T03:05:12;17.50;99.90
10873;DHT22;34586;53.616;10.032;2023-07-24T03:07:37;17.50;99.90
10873;DHT22;34586;53.616;10.032;2023-07-24T03:10:03;17.50;99.90
10873;DHT22;34586;53.616;10.032;2023-07-24T03:12:29;17.50;99.90
10873;DHT22;34586;53.616;10.032;2023-07-24T03:14:55;17.50;99.90
10873;DHT22;34586;53.616;10.032;2023-07-24T03:17:22;17.60;99.90
10873;DHT22;34586;53.616;10.032;2023-07-24T03:19:48;17.60;99.90
10873;DHT22;34586;53.616;10.032;2023-07-24T03:22:14;17.70;99.90
10873;DHT22;34586;53.616;10.032;2023-07-24T03:24:40;17.70;99.90
10873;DHT22;34586;53.616;10.032;2023-07-24T03:27:05;17.70;99.90
10873;DHT22;34586;53.616;10.032;2023-07-24T03:29:31;17.80;99.90
10873;DHT22;34586;53.616;10.032;2023-07-24T03:31:57;17.80;99.90
10873;DHT22;34586;53.616;10.032;2023-07-24T03:34:22;17.80;99.90
10873;DHT22;34586;53.616;10.032;2023-07-24T03:36:48;17.80;99.90
10873;DHT22;34586;53.616;10.032;2023-07-24T03:39:13;17.70;99.90
10873;DHT22;34586;53.616;10.032;2023-07-24T03:41:42;17.70;99.90
10873;DHT22;34586;53.616;10.032;2023-07-24T03:44:08;17.70;99.90
10873;DHT22;34586;53.616;10.032;2023-07-24T03:46:34;17.70;99.90
10873;DHT22;34586;53.616;10.032;2023-07-24T03:49:00;17.70;99.90
10873;DHT22;34586;53.616;10.032;2023-07-24T03:51:26;17.70;99.90
10873;DHT22;34586;53.616;10.032;2023-07-24T03:53:51;17.70;99.90
10873;DHT22;34586;53.616;10.032;2023-07-24T03:56:17;17.60;99.90
10873;DHT22;34586;53.616;10.032;2023-07-24T03:58:43;17.70;99.90
10873;DHT22;34586;53.616;10.032;2023-07-24T04:01:08;17.70;99.90
10873;DHT22;34586;53.616;10.032;2023-07-24T04:03:35;17.70;99.90
10873;DHT22;34586;53.616;10.032;2023-07-24T04:06:00;17.70;99.90
10873;DHT22;34586;53.616;10.032;2023-07-24T04:08:26;17.70;99.90
10873;DHT22;34586;53.616;10.032;2023-07-24T04:10:52;17.60;99.90
10873;DHT22;34586;53.616;10.032;2023-07-24T04:13:18;17.60;99.90
10873;DHT22;34586;53.616;10.032;2023-07-24T04:15:43;17.60;99.90
10873;DHT22;34586;53.616;10.032;2023-07-24T04:18:10;17.60;99.90
10873;DHT22;34586;53.616;10.032;2023-07-24T04:20:35;17.50;99.90
10873;DHT22;34586;53.616;10.032;2023-07-24T04:23:01;17.50;99.90
10873;DHT22;34586;53.616;10.032;2023-07-24T04:25:27;17.60;99.90
10873;DHT22;34586;53.616;10.032;2023-07-24T04:27:52;17.60;99.90
10873;DHT22;34586;53.616;10.032;2023-07-24T04:30:18;17.60;99.90
10873;DHT22;34586;53.616;10.032;2023-07-24T04:32:43;17.70;99.90
10873;DHT22;34586;53.616;10.032;2023-07-24T04:35:09;17.70;99.90
10873;DHT22;34586;53.616;10.032;2023-07-24T04:37:34;17.70;99.90
10873;DHT22;34586;53.616;10.032;2023-07-24T04:40:00;17.80;99.90
10873;DHT22;34586;53.616;10.032;2023-07-24T04:42:26;17.80;99.90
10873;DHT22;34586;53.616;10.032;2023-07-24T04:44:51;17.90;99.90
10873;DHT22;34586;53.616;10.032;2023-07-24T04:47:17;17.90;99.90
10873;DHT22;34586;53.616;10.032;2023-07-24T04:49:42;17.90;99.90
10873;DHT22;34586;53.616;10.032;2023-07-24T04:52:08;17.90;99.90
10873;DHT22;34586;53.616;10.032;2023-07-24T04:54:34;18.00;99.90
10873;DHT22;34586;53.616;10.032;2023-07-24T04:56:59;18.00;99.90
10873;DHT22;34586;53.616;10.032;2023-07-24T04:59:25;18.00;99.90
10873;DHT22;34586;53.616;10.032;2023-07-24T05:01:50;18.10;99.90
10873;DHT22;34586;53.616;10.032;2023-07-24T05:04:16;18.10;99.90
10873;DHT22;34586;53.616;10.032;2023-07-24T05:06:41;18.20;99.90
10873;DHT22;34586;53.616;10.032;2023-07-24T05:09:07;18.20;99.90
10873;DHT22;34586;53.616;10.032;2023-07-24T05:11:33;18.20;99.90
10873;DHT22;34586;53.616;10.032;2023-07-24T05:13:58;18.30;99.90
10873;DHT22;34586;53.616;10.032;2023-07-24T05:16:24;18.30;99.90
10873;DHT22;34586;53.616;10.032;2023-07-24T05:18:49;18.30;99.90
10873;DHT22;34586;53.616;10.032;2023-07-24T05:21:15;18.40;99.90
10873;DHT22;34586;53.616;10.032;2023-07-24T05:23:40;18.50;99.90
10873;DHT22;34586;53.616;10.032;2023-07-24T05:26:06;18.60;99.90
10873;DHT22;34586;53.616;10.032;2023-07-24T05:28:32;18.60;99.90
10873;DHT22;34586;53.616;10.032;2023-07-24T05:31:02;18.80;99.90
10873;DHT22;34586;53.616;10.032;2023-07-24T05:33:28;18.80;99.90
10873;DHT22;34586;53.616;10.032;2023-07-24T05:36:01;18.80;99.90
10873;DHT22;34586;53.616;10.032;2023-07-24T05:38:26;18.90;99.90
10873;DHT22;34586;53.616;10.032;2023-07-24T05:41:02;18.90;99.90
10873;DHT22;34586;53.616;10.032;2023-07-24T05:43:29;18.80;99.90
10873;DHT22;34586;53.616;10.032;2023-07-24T05:45:56;18.80;99.90
10873;DHT22;34586;53.616;10.032;2023-07-24T05:48:23;18.80;99.90
10873;DHT22;34586;53.616;10.032;2023-07-24T05:50:49;18.70;99.90
10873;DHT22;34586;53.616;10.032;2023-07-24T05:53:15;18.80;99.90
10873;DHT22;34586;53.616;10.032;2023-07-24T05:55:41;18.80;99.90
10873;DHT22;34586;53.616;10.032;2023-07-24T05:58:08;18.80;99.90
10873;DHT22;34586;53.616;10.032;2023-07-24T06:00:33;18.90;99.90
10873;DHT22;34586;53.616;10.032;2023-07-24T06:02:59;18.90;99.90
10873;DHT22;34586;53.616;10.032;2023-07-24T06:05:25;18.90;99.90
10873;DHT22;34586;53.616;10.032;2023-07-24T06:07:50;19.00;99.90
10873;DHT22;34586;53.616;10.032;2023-07-24T06:10:16;19.10;99.90
10873;DHT22;34586;53.616;10.032;2023-07-24T06:12:41;19.10;99.90
10873;DHT22;34586;53.616;10.032;2023-07-24T06:15:07;19.10;99.90
10873;DHT22;34586;53.616;10.032;2023-07-24T06:17:33;19.10;99.90
10873;DHT22;34586;53.616;10.032;2023-07-24T06:19:59;19.10;99.90
10873;DHT22;34586;53.616;10.032;2023-07-24T06:22:25;19.10;99.90
10873;DHT22;34586;53.616;10.032;2023-07-24T06:24:50;19.00;99.90
10873;DHT22;34586;53.616;10.032;2023-07-24T06:27:16;19.10;99.90
10873;DHT22;34586;53.616;10.032;2023-07-24T06:29:42;19.10;99.90
10873;DHT22;34586;53.616;10.032;2023-07-24T06:32:08;19.10;99.90
10873;DHT22;34586;53.616;10.032;2023-07-24T06:34:34;19.20;99.90
10873;DHT22;34586;53.616;10.032;2023-07-24T06:36:59;19.40;99.90
10873;DHT22;34586;53.616;10.032;2023-07-24T06:39:25;19.50;99.90
10873;DHT22;34586;53.616;10.032;2023-07-24T06:41:54;19.60;99.90
10873;DHT22;34586;53.616;10.032;2023-07-24T06:44:20;19.50;99.90
10873;DHT22;34586;53.616;10.032;2023-07-24T06:46:46;19.50;99.90
10873;DHT22;34586;53.616;10.032;2023-07-24T06:49:12;19.50;99.90
10873;DHT22;34586;53.616;10.032;2023-07-24T06:51:37;19.40;99.90
10873;DHT22;34586;53.616;10.032;2023-07-24T06:54:04;19.40;99.90
10873;DHT22;34586;53.616;10.032;2023-07-24T06:56:30;19.40;99.90
10873;DHT22;34586;53.616;10.032;2023-07-24T06:58:56;19.20;99.90
10873;DHT22;34586;53.616;10.032;2023-07-24T07:01:21;19.30;99.90
10873;DHT22;34586;53.616;10.032;2023-07-24T07:03:47;19.40;99.90
10873;DHT22;34586;53.616;10.032;2023-07-24T07:06:12;19.50;99.90
10873;DHT22;34586;53.616;10.032;2023-07-24T07:08:38;19.70;99.90
10873;DHT22;34586;53.616;10.032;2023-07-24T07:11:04;19.70;99.90
10873;DHT22;34586;53.616;10.032;2023-07-24T07:13:29;19.70;99.90
10873;DHT22;34586;53.616;10.032;2023-07-24T07:15:55;19.70;99.90
10873;DHT22;34586;53.616;10.032;2023-07-24T07:18:21;19.60;99.90
10873;DHT22;34586;53.616;10.032;2023-07-24T07:20:47;19.60;99.90
10873;DHT22;34586;53.616;10.032;2023-07-24T07:23:13;19.60;99.90
10873;DHT22;34586;53.616;10.032;2023-07-24T07:25:39;19.60;99.90
10873;DHT22;34586;53.616;10.032;2023-07-24T07:28:05;19.50;99.90
10873;DHT22;34586;53.616;10.032;2023-07-24T07:30:30;19.50;99.90
10873;DHT22;34586;53.616;10.032;2023-07-24T07:32:56;19.40;99.90
10873;DHT22;34586;53.616;10.032;2023-07-24T07:35:22;19.40;99.90
10873;DHT22;34586;53.616;10.032;2023-07-24T07:37:48;19.40;99.90
10873;DHT22;34586;53.616;10.032;2023-07-24T07:40:13;19.40;99.90
10873;DHT22;34586;53.616;10.032;2023-07-24T07:42:39;19.50;99.90
10873;DHT22;34586;53.616;10.032;2023-07-24T07:45:05;19.50;99.90
10873;DHT22;34586;53.616;10.032;2023-07-24T07:47:30;19.60;99.90
10873;DHT22;34586;53.616;10.032;2023-07-24T07:49:56;19.60;99.90
10873;DHT22;34586;53.616;10.032;2023-07-24T07:52:22;19.70;99.90
10873;DHT22;34586;53.616;10.032;2023-07-24T07:54:50;19.80;99.90
10873;DHT22;34586;53.616;10.032;2023-07-24T07:57:16;19.80;99.90
10873;DHT22;34586;53.616;10.032;2023-07-24T07:59:42;19.80;99.90
10873;DHT22;34586;53.616;10.032;2023-07-24T08:02:08;19.80;99.90
10873;DHT22;34586;53.616;10.032;2023-07-24T08:04:34;19.80;99.90
10873;DHT22;34586;53.616;10.032;2023-07-24T08:06:59;19.80;99.90
10873;DHT22;34586;53.616;10.032;2023-07-24T08:09:25;20.00;99.90
10873;DHT22;34586;53.616;10.032;2023-07-24T08:11:51;20.10;99.90
10873;DHT22;34586;53.616;10.032;2023-07-24T08:14:17;20.20;99.90
10873;DHT22;34586;53.616;10.032;2023-07-24T08:16:43;20.20;99.90
10873;DHT22;34586;53.616;10.032;2023-07-24T08:19:09;20.20;99.90
10873;DHT22;34586;53.616;10.032;2023-07-24T08:21:34;20.20;99.90
10873;DHT22;34586;53.616;10.032;2023-07-24T08:24:01;20.20;99.90
10873;DHT22;34586;53.616;10.032;2023-07-24T08:26:27;20.20;99.90
10873;DHT22;34586;53.616;10.032;2023-07-24T08:28:53;20.30;99.90
10873;DHT22;34586;53.616;10.032;2023-07-24T08:31:19;20.30;99.90
10873;DHT22;34586;53.616;10.032;2023-07-24T08:33:45;20.50;99.90
10873;DHT22;34586;53.616;10.032;2023-07-24T08:36:10;20.70;99.90
10873;DHT22;34586;53.616;10.032;2023-07-24T08:38:40;20.80;25.80
10873;DHT22;34586;53.616;10.032;2023-07-24T08:43:33;20.50;1.00
10873;DHT22;34586;53.616;10.032;2023-07-24T08:45:59;20.40;7.30
10873;DHT22;34586;53.616;10.032;2023-07-24T08:48:36;20.50;19.60
10873;DHT22;34586;53.616;10.032;2023-07-24T08:51:03;20.30;61.10
10873;DHT22;34586;53.616;10.032;2023-07-24T08:53:30;20.30;54.30
10873;DHT22;34586;53.616;10.032;2023-07-24T08:55:56;20.20;84.30
10873;DHT22;34586;53.616;10.032;2023-07-24T08:58:22;20.10;99.90
10873;DHT22;34586;53.616;10.032;2023-07-24T09:00:48;20.20;99.90
10873;DHT22;34586;53.616;10.032;2023-07-24T09:03:14;20.30;96.40
10873;DHT22;34586;53.616;10.032;2023-07-24T09:05:39;20.40;68.00
10873;DHT22;34586;53.616;10.032;2023-07-24T09:08:05;20.40;52.80
10873;DHT22;34586;53.616;10.032;2023-07-24T09:10:31;20.50;99.90
10873;DHT22;34586;53.616;10.032;2023-07-24T09:12:56;20.70;1.00
10873;DHT22;34586;53.616;10.032;2023-07-24T09:15:22;20.90;5.60
10873;DHT22;34586;53.616;10.032;2023-07-24T09:17:52;20.90;1.00
10873;DHT22;34586;53.616;10.032;2023-07-24T09:20:19;21.10;1.00
10873;DHT22;34586;53.616;10.032;2023-07-24T09:22:52;21.10;1.00
10873;DHT22;34586;53.616;10.032;2023-07-24T09:25:18;21.10;1.00
10873;DHT22;34586;53.616;10.032;2023-07-24T09:27:44;21.20;1.00
10873;DHT22;34586;53.616;10.032;2023-07-24T09:30:14;21.10;99.90
10873;DHT22;34586;53.616;10.032;2023-07-24T09:32:40;21.10;99.90
10873;DHT22;34586;53.616;10.032;2023-07-24T09:35:16;21.10;99.90
10873;DHT22;34586;53.616;10.032;2023-07-24T09:37:43;21.10;99.90
10873;DHT22;34586;53.616;10.032;2023-07-24T09:40:10;21.10;99.90
10873;DHT22;34586;53.616;10.032;2023-07-24T09:42:37;21.10;99.90
10873;DHT22;34586;53.616;10.032;2023-07-24T09:45:04;21.20;99.90
10873;DHT22;34586;53.616;10.032;2023-07-24T09:47:31;21.20;99.90
10873;DHT22;34586;53.616;10.032;2023-07-24T09:49:56;21.30;99.90
10873;DHT22;34586;53.616;10.032;2023-07-24T09:52:24;21.40;99.90
10873;DHT22;34586;53.616;10.032;2023-07-24T09:55:11;21.50;99.90
10873;DHT22;34586;53.616;10.032;2023-07-24T09:57:37;21.50;44.80
10873;DHT22;34586;53.616;10.032;2023-07-24T10:00:04;21.50;99.90
10873;DHT22;34586;53.616;10.032;2023-07-24T10:02:33;21.40;1.00
10873;DHT22;34586;53.616;10.032;2023-07-24T10:05:00;21.40;39.40
10873;DHT22;34586;53.616;10.032;2023-07-24T10:07:27;21.50;99.90
10873;DHT22;34586;53.616;10.032;2023-07-24T10:09:53;21.60;99.90
10873;DHT22;34586;53.616;10.032;2023-07-24T10:12:20;21.80;4.30
10873;DHT22;34586;53.616;10.032;2023-07-24T10:14:46;22.00;73.60
10873;DHT22;34586;53.616;10.032;2023-07-24T10:17:12;22.10;1.00
10873;DHT22;34586;53.616;10.032;2023-07-24T10:19:42;22.20;1.00
10873;DHT22;34586;53.616;10.032;2023-07-24T10:22:09;22.50;1.00
10873;DHT22;34586;53.616;10.032;2023-07-24T10:24:36;22.40;1.00
10873;DHT22;34586;53.616;10.032;2023-07-24T10:27:03;22.30;99.90
10873;DHT22;34586;53.616;10.032;2023-07-24T10:29:29;22.20;1.00
10873;DHT22;34586;53.616;10.032;2023-07-24T10:31:59;22.10;1.00
10873;DHT22;34586;53.616;10.032;2023-07-24T10:34:24;22.10;1.00
10873;DHT22;34586;53.616;10.032;2023-07-24T10:36:50;22.00;1.00
10873;DHT22;34586;53.616;10.032;2023-07-24T10:39:16;22.10;1.00
10873;DHT22;34586;53.616;10.032;2023-07-24T10:41:44;22.10;1.00
10873;DHT22;34586;53.616;10.032;2023-07-24T10:44:11;22.20;1.00
10873;DHT22;34586;53.616;10.032;2023-07-24T10:46:41;22.40;1.00
10873;DHT22;34586;53.616;10.032;2023-07-24T10:49:08;22.50;99.90
10873;DHT22;34586;53.616;10.032;2023-07-24T10:51:34;22.50;99.90
10873;DHT22;34586;53.616;10.032;2023-07-24T10:54:03;22.40;99.90
10873;DHT22;34586;53.616;10.032;2023-07-24T10:56:30;22.40;99.90
10873;DHT22;34586;53.616;10.032;2023-07-24T10:58:55;22.50;1.00
10873;DHT22;34586;53.616;10.032;2023-07-24T11:01:21;22.60;1.00
10873;DHT22;34586;53.616;10.032;2023-07-24T11:03:49;22.70;99.90
10873;DHT22;34586;53.616;10.032;2023-07-24T11:06:17;22.70;99.90
10873;DHT22;34586;53.616;10.032;2023-07-24T11:08:52;22.60;99.90
10873;DHT22;34586;53.616;10.032;2023-07-24T11:11:17;22.70;99.90
10873;DHT22;34586;53.616;10.032;2023-07-24T11:13:43;22.70;1.00
10873;DHT22;34586;53.616;10.032;2023-07-24T11:16:09;22.70;99.90
10873;DHT22;34586;53.616;10.032;2023-07-24T11:18:45;22.80;99.90
10873;DHT22;34586;53.616;10.032;2023-07-24T11:21:12;22.90;99.90
10873;DHT22;34586;53.616;10.032;2023-07-24T11:23:37;22.80;99.90
10873;DHT22;34586;53.616;10.032;2023-07-24T11:26:04;22.90;99.90
10873;DHT22;34586;53.616;10.032;2023-07-24T11:28:39;23.00;99.90
10873;DHT22;34586;53.616;10.032;2023-07-24T11:31:05;23.20;89.90
10873;DHT22;34586;53.616;10.032;2023-07-24T11:33:31;23.40;99.90
10873;DHT22;34586;53.616;10.032;2023-07-24T11:35:57;23.40;1.00
10873;DHT22;34586;53.616;10.032;2023-07-24T11:38:23;23.40;99.90
10873;DHT22;34586;53.616;10.032;2023-07-24T11:40:49;23.30;78.80
10873;DHT22;34586;53.616;10.032;2023-07-24T11:43:20;23.30;99.90
10873;DHT22;34586;53.616;10.032;2023-07-24T11:45:47;23.20;80.00
10873;DHT22;34586;53.616;10.032;2023-07-24T11:48:17;23.00;34.90
10873;DHT22;34586;53.616;10.032;2023-07-24T11:50:47;23.00;71.60
10873;DHT22;34586;53.616;10.032;2023-07-24T11:53:29;22.90;35.60
10873;DHT22;34586;53.616;10.032;2023-07-24T11:55:57;23.00;1.00
10873;DHT22;34586;53.616;10.032;2023-07-24T11:58:26;23.30;2.20
10873;DHT22;34586;53.616;10.032;2023-07-24T12:00:52;23.50;8.30
10873;DHT22;34586;53.616;10.032;2023-07-24T12:03:25;23.70;1.00
10873;DHT22;34586;53.616;10.032;2023-07-24T12:05:51;23.90;1.00
10873;DHT22;34586;53.616;10.032;2023-07-24T12:08:28;23.90;1.00
10873;DHT22;34586;53.616;10.032;2023-07-24T12:10:54;24.00;30.10
10873;DHT22;34586;53.616;10.032;2023-07-24T12:13:20;23.80;1.00
10873;DHT22;34586;53.616;10.032;2023-07-24T12:15:45;23.40;1.00
10873;DHT22;34586;53.616;10.032;2023-07-24T12:18:11;23.40;1.00
10873;DHT22;34586;53.616;10.032;2023-07-24T12:20:36;23.40;99.90
10873;DHT22;34586;53.616;10.032;2023-07-24T12:23:02;23.20;17.90
10873;DHT22;34586;53.616;10.032;2023-07-24T12:25:28;23.40;99.90
10873;DHT22;34586;53.616;10.032;2023-07-24T12:27:53;23.70;99.90
10873;DHT22;34586;53.616;10.032;2023-07-24T12:30:19;24.10;1.00
10873;DHT22;34586;53.616;10.032;2023-07-24T12:32:45;24.80;1.00
10873;DHT22;34586;53.616;10.032;2023-07-24T12:35:10;25.40;99.90
10873;DHT22;34586;53.616;10.032;2023-07-24T12:37:36;26.10;99.90
10873;DHT22;34586;53.616;10.032;2023-07-24T12:40:05;27.20;1.00
10873;DHT22;34586;53.616;10.032;2023-07-24T12:42:30;28.10;1.00
10873;DHT22;34586;53.616;10.032;2023-07-24T12:44:56;27.60;99.90
10873;DHT22;34586;53.616;10.032;2023-07-24T12:47:23;27.20;1.00
10873;DHT22;34586;53.616;10.032;2023-07-24T12:49:49;27.50;99.90
10873;DHT22;34586;53.616;10.032;2023-07-24T12:52:14;27.60;99.90
10873;DHT22;34586;53.616;10.032;2023-07-24T12:54:40;28.10;16.90
10873;DHT22;34586;53.616;10.032;2023-07-24T12:57:05;28.30;1.00
10873;DHT22;34586;53.616;10.032;2023-07-24T12:59:31;28.80;99.90
10873;DHT22;34586;53.616;10.032;2023-07-24T13:01:57;29.30;63.20
10873;DHT22;34586;53.616;10.032;2023-07-24T13:04:23;28.90;99.90
10873;DHT22;34586;53.616;10.032;2023-07-24T13:06:49;27.80;1.00
10873;DHT22;34586;53.616;10.032;2023-07-24T13:09:14;27.30;1.00
10873;DHT22;34586;53.616;10.032;2023-07-24T13:11:40;27.50;99.90
10873;DHT22;34586;53.616;10.032;2023-07-24T13:14:05;27.50;39.80
10873;DHT22;34586;53.616;10.032;2023-07-24T13:16:31;27.70;99.90
10873;DHT22;34586;53.616;10.032;2023-07-24T13:18:57;27.90;75.10
10873;DHT22;34586;53.616;10.032;2023-07-24T13:21:22;28.10;1.00
10873;DHT22;34586;53.616;10.032;2023-07-24T13:23:49;28.20;1.00
10873;DHT22;34586;53.616;10.032;2023-07-24T13:26:15;28.20;1.00
10873;DHT22;34586;53.616;10.032;2023-07-24T13:28:41;28.30;99.90
10873;DHT22;34586;53.616;10.032;2023-07-24T13:31:20;28.60;10.30
10873;DHT22;34586;53.616;10.032;2023-07-24T13:33:46;29.10;99.90
10873;DHT22;34586;53.616;10.032;2023-07-24T13:36:12;29.20;99.90
10873;DHT22;34586;53.616;10.032;2023-07-24T13:38:37;29.10;99.90
10873;DHT22;34586;53.616;10.032;2023-07-24T13:41:03;28.60;99.90
10873;DHT22;34586;53.616;10.032;2023-07-24T13:43:30;28.20;99.90
10873;DHT22;34586;53.616;10.032;2023-07-24T13:45:56;27.80;1.00
10873;DHT22;34586;53.616;10.032;2023-07-24T13:48:22;27.80;1.00
10873;DHT22;34586;53.616;10.032;2023-07-24T13:50:49;28.20;99.90
10873;DHT22;34586;53.616;10.032;2023-07-24T13:53:15;28.40;99.90
10873;DHT22;34586;53.616;10.032;2023-07-24T13:55:41;28.20;1.00
10873;DHT22;34586;53.616;10.032;2023-07-24T13:58:06;27.70;99.90
10873;DHT22;34586;53.616;10.032;2023-07-24T14:00:32;27.30;99.90
10873;DHT22;34586;53.616;10.032;2023-07-24T14:02:57;27.80;1.00
10873;DHT22;34586;53.616;10.032;2023-07-24T14:05:24;27.90;79.70
10873;DHT22;34586;53.616;10.032;2023-07-24T14:07:49;28.30;99.90
10873;DHT22;34586;53.616;10.032;2023-07-24T14:10:15;28.50;1.00
10873;DHT22;34586;53.616;10.032;2023-07-24T14:12:40;28.30;1.00
10873;DHT22;34586;53.616;10.032;2023-07-24T14:15:06;27.90;1.00
10873;DHT22;34586;53.616;10.032;2023-07-24T14:17:32;27.60;99.90
10873;DHT22;34586;53.616;10.032;2023-07-24T14:19:58;27.30;1.00
10873;DHT22;34586;53.616;10.032;2023-07-24T14:22:23;27.20;99.90
10873;DHT22;34586;53.616;10.032;2023-07-24T14:24:49;26.80;1.00
10873;DHT22;34586;53.616;10.032;2023-07-24T14:27:14;26.80;1.00
10873;DHT22;34586;53.616;10.032;2023-07-24T14:29:40;26.80;7.20
10873;DHT22;34586;53.616;10.032;2023-07-24T14:32:06;26.90;99.90
10873;DHT22;34586;53.616;10.032;2023-07-24T14:34:32;26.90;99.90
10873;DHT22;34586;53.616;10.032;2023-07-24T14:36:58;26.80;99.90
10873;DHT22;34586;53.616;10.032;2023-07-24T14:39:23;26.70;99.90
10873;DHT22;34586;53.616;10.032;2023-07-24T14:41:49;26.70;99.90
10873;DHT22;34586;53.616;10.032;2023-07-24T14:44:14;26.70;1.00
10873;DHT22;34586;53.616;10.032;2023-07-24T14:46:40;26.60;99.90
10873;DHT22;34586;53.616;10.032;2023-07-24T14:49:06;26.40;1.00
10873;DHT22;34586;53.616;10.032;2023-07-24T14:51:31;26.20;99.90
10873;DHT22;34586;53.616;10.032;2023-07-24T14:53:57;26.10;99.90
10873;DHT22;34586;53.616;10.032;2023-07-24T14:56:22;25.70;1.00
10873;DHT22;34586;53.616;10.032;2023-07-24T14:58:48;25.40;64.60
10873;DHT22;34586;53.616;10.032;2023-07-24T15:01:14;25.10;99.90
10873;DHT22;34586;53.616;10.032;2023-07-24T15:03:39;24.90;1.00
10873;DHT22;34586;53.616;10.032;2023-07-24T15:06:05;24.70;1.00
10873;DHT22;34586;53.616;10.032;2023-07-24T15:08:34;24.60;1.00
10873;DHT22;34586;53.616;10.032;2023-07-24T15:11:00;24.30;1.00
10873;DHT22;34586;53.616;10.032;2023-07-24T15:13:26;24.10;99.90
10873;DHT22;34586;53.616;10.032;2023-07-24T15:15:52;24.00;99.90
10873;DHT22;34586;53.616;10.032;2023-07-24T15:18:17;23.90;99.90
10873;DHT22;34586;53.616;10.032;2023-07-24T15:20:43;23.90;99.90